Flight Track Log - Related Links

Times and Time Zones

All times are in EDT time to prevent confusion due to time zone crossing. See the DAL3720 flight status page for this flight to view local times or setup timezone preferences in your user account.


Time Position Orientation Groundspeed Altitude Reporting Facility
EDT Latitude Longitude Course Direction KTS MPH feet Rate Location/Type
Thu 06:23:00 AM 40.2996 -77.0677 242° Southwest  Level FlightAware Approximate
Thu 06:23:06 AM 40.2394 -76.9108 247° West 202 232 5,200  Level New York Center
Thu 06:24:00 AM 40.2562 -77.1762 242° Southwest  Level FlightAware Approximate
Thu 06:24:06 AM 40.2264 -76.9969 259° West 258 297 7,600  Level New York Center
Thu 06:25:00 AM 40.2122 -77.2841 241° Southwest  Level FlightAware Approximate
Thu 06:25:08 AM 40.2064 -77.1011 256° West 269 310 9,800  Level New York Center
Thu 06:26:00 AM 40.1675 -77.3914 241° Southwest  Level FlightAware Approximate
Thu 06:26:06 AM 40.1989 -77.2011 264° West 293 337 11,500  Level New York Center
Thu 06:27:00 AM 40.1273 -77.5016 247° West  Level FlightAware Approximate
Thu 06:27:06 AM 40.1875 -77.3331 264° West 317 365 13,300  Level New York Center
Thu 06:28:00 AM 40.0900 -77.6136 247° West  Level FlightAware Approximate
Thu 06:28:07 AM 40.1789 -77.4464 264° West 349 402 14,800  Level New York Center
Thu 06:29:08 AM 40.1667 -77.5892 264° West 354 407 16,700 1,399 Climbing New York Center
Thu 06:31:20 AM 40.1456 -77.8753 265° West 376 433 19,300 1,156 Climbing Cleveland Center
Thu 06:32:20 AM 40.1303 -78.0306 263° West 381 438 20,400 1,150 Climbing Cleveland Center
Thu 06:33:20 AM 40.1189 -78.1722 264° West 391 450 21,600 1,200 Climbing Cleveland Center
Thu 06:34:20 AM 40.1072 -78.3136 264° West 391 450 22,800 1,050 Climbing Cleveland Center
Thu 06:35:20 AM 40.0931 -78.4528 262° West 391 450 23,700 850 Climbing Cleveland Center
Thu 06:36:20 AM 40.0789 -78.5942 263° West 391 450 24,500 800 Climbing Cleveland Center
Thu 06:37:20 AM 40.0667 -78.7356 264° West 391 450 25,300 800 Climbing Cleveland Center
Thu 06:38:20 AM 40.0544 -78.8769 264° West 391 450 26,100 750 Climbing Cleveland Center
Thu 06:39:20 AM 40.0439 -79.0239 265° West 396 456 26,800 600 Climbing Cleveland Center
Thu 06:40:20 AM 40.0314 -79.1678 264° West 401 461 27,300 500 Climbing Cleveland Center
Thu 06:41:20 AM 40.0164 -79.3172 263° West 413 475 27,800 350 Climbing Cleveland Center
Thu 06:42:20 AM 40.0594 -79.4575 292° West 400 460 28,000 100 Climbing Cleveland Center
Thu 06:43:20 AM 40.1275 -79.5919 304° West 418 481 28,000  Level Cleveland Center
Thu 06:44:20 AM 40.1975 -79.7297 304° West 431 496 28,000  Level Cleveland Center
Thu 06:45:20 AM 40.2631 -79.8647 303° West 445 512 28,000  Level Cleveland Center
Thu 06:46:20 AM 40.3303 -79.9975 304° West 450 518 28,000  Level Cleveland Center
Thu 06:47:20 AM 40.3956 -80.1333 302° West 450 518 28,000  Level Cleveland Center
Thu 06:48:20 AM 40.4586 -80.2667 302° West 450 518 28,000  Level Cleveland Center
Thu 06:49:20 AM 40.5214 -80.3864 305° West 445 512 28,000  Level Cleveland Center
Thu 06:50:20 AM 40.5861 -80.5203 303° West 440 506 28,000  Level Cleveland Center
Thu 06:51:20 AM 40.6486 -80.6542 302° West 433 498 28,000  Level Cleveland Center
Thu 06:52:20 AM 40.7153 -80.7886 303° West 433 498 28,000  Level Cleveland Center
Thu 06:53:20 AM 40.7797 -80.9231 302° West 433 498 28,000 -400 Level Cleveland Center
Thu 06:54:20 AM 40.8436 -81.0606 302° West 433 498 27,200 -950 Descending Cleveland Center
Thu 06:55:20 AM 40.8764 -81.2175 285° West 413 475 26,100 -1,050 Descending Cleveland Center
Thu 06:56:20 AM 40.8881 -81.3603 276° West 399 459 25,100 -1,050 Descending Cleveland Center
Thu 06:57:20 AM 40.9581 -81.4794 308° West 399 459 24,000 -550 Descending Cleveland Center
Thu 06:58:20 AM 41.0300 -81.5961 309° West 408 470 24,000  Level Cleveland Center
Thu 06:59:20 AM 41.1017 -81.7183 308° West 420 483 24,000  Level Cleveland Center
Thu 07:00:20 AM 41.1694 -81.8300 309° West 425 489 24,000  Level Cleveland Center
Thu 07:01:20 AM 41.2408 -81.9528 308° West 425 489 24,000 -300 Level Cleveland Center
Thu 07:02:20 AM 41.3103 -82.0758 307° West 425 489 23,400 -900 Descending Cleveland Center
Thu 07:03:20 AM 41.3794 -82.1992 307° West 416 479 22,200 -1,700 Descending Cleveland Center
Thu 07:04:20 AM 41.4547 -82.3258 308° West 416 479 20,000 -2,200 Descending Cleveland Center
Thu 07:05:20 AM 41.5217 -82.4358 309° West 400 460 17,800 -2,150 Descending Cleveland Center
Thu 07:06:20 AM 41.5867 -82.5431 309° West 388 447 15,700 -2,150 Descending Cleveland Center
Thu 07:07:20 AM 41.6453 -82.6450 308° West 367 422 13,500 -2,065 Descending Cleveland Center
Thu 07:07:53 AM 41.6797 -82.6989 311° West 349 402 12,500 -900 Descending Cleveland Center
Thu 07:09:00 AM 41.7528 -82.8097 311° West 350 403 12,000 -234 Descending Cleveland Center
Thu 07:10:01 AM 41.8239 -82.8986 317° Northwest 348 400 12,000  Level Cleveland Center
Thu 07:10:56 AM 41.8911 -82.9764 319° Northwest 347 399 12,000  Level Cleveland Center
Thu 07:11:57 AM 41.9622 -83.0628 318° Northwest 345 397 12,000  Level Cleveland Center
Thu 07:12:58 AM 42.0394 -83.1525 319° Northwest 344 396 12,000  Level Cleveland Center
Thu 07:13:59 AM 42.0964 -83.2219 318° Northwest 261 300 12,000 -689 Level Cleveland Center
Thu 07:15:00 AM 42.1647 -83.2361 351° North 242 278 10,600 -1,426 Descending Cleveland Center
Thu 07:16:01 AM 42.2239 -83.2022 23° Northeast 239 275 9,100 -1,475 Descending Cleveland Center
Thu 07:17:02 AM 42.2894 -83.1628 24° Northeast 239 275 7,600 -1,172 Descending Cleveland Center
Thu 07:18:09 AM 42.3531 -83.1231 25° Northeast 231 266 6,600 -1,190 Descending Cleveland Center
Thu 07:18:58 AM 42.4003 -83.1447 341° North 234 269 5,300 -1,241 Descending Cleveland Center
Thu 07:20:05 AM 42.3736 -83.2253 246° West 216 249 4,200 -985 Descending Cleveland Center

Login

Don't have an account? Register now (free) for customized features, flight alerts, and more!